Time;durP1;ratioP1;P1;durP2;ratioP2;P2;SDS_P1;SDS_P2;PMS_P1;PMS_P2;Temp;Humidity;BMP_temperature;BMP_pressure;BME280_temperature;BME280_humidity;BME280_pressure;Samples;Min_cycle;Max_cycle;Signal;HPM_P1;HPM_P2
2023/06/28 00:00:36;;;;;;;82.77;80.17;;;16.10;99.90;;;;;;4930125;29;20222;-83
2023/06/28 00:03:02;;;;;;;81.60;78.83;;;16.10;99.90;;;;;;4914095;29;20218;-83
2023/06/28 00:05:28;;;;;;;86.37;83.43;;;16.10;99.90;;;;;;4930683;28;20831;-84
2023/06/28 00:07:53;;;;;;;79.90;77.20;;;16.10;99.90;;;;;;4930119;29;20229;-83
2023/06/28 00:10:19;;;;;;;72.70;69.97;;;16.10;99.90;;;;;;4931767;28;20183;-83
2023/06/28 00:12:45;;;;;;;73.73;71.40;;;16.10;99.90;;;;;;4914031;29;20248;-85
2023/06/28 00:15:11;;;;;;;73.53;71.17;;;16.10;99.90;;;;;;4913125;29;20222;-83
2023/06/28 00:17:37;;;;;;;81.37;78.43;;;16.10;99.90;;;;;;4930919;28;20225;-83
2023/06/28 00:20:07;;;;;;;76.33;73.90;;;16.10;99.90;;;;;;4914077;29;20217;-83
2023/06/28 00:22:36;;;;;;;64.37;61.97;;;16.10;99.90;;;;;;4929658;28;20277;-82
2023/06/28 00:25:05;;;;;;;74.30;71.60;;;16.10;99.90;;;;;;4931425;29;20620;-83
2023/06/28 00:27:31;;;;;;;73.87;71.17;;;16.10;99.90;;;;;;4929488;29;20277;-84
2023/06/28 00:29:58;;;;;;;70.67;67.97;;;16.10;99.90;;;;;;4945418;28;20369;-84
2023/06/28 00:32:25;;;;;;;74.13;71.73;;;16.10;99.90;;;;;;4930151;28;20257;-84
2023/06/28 00:34:51;;;;;;;77.57;75.07;;;16.10;99.90;;;;;;4929080;29;20214;-83
2023/06/28 00:37:17;;;;;;;74.30;71.97;;;16.10;99.90;;;;;;4929362;29;20707;-84
2023/06/28 00:39:43;;;;;;;71.27;68.70;;;16.10;99.90;;;;;;4913358;29;20301;-84
2023/06/28 00:42:11;;;;;;;72.83;70.47;;;16.10;99.90;;;;;;4913044;29;20245;-82
2023/06/28 00:44:37;;;;;;;74.80;72.43;;;16.10;99.90;;;;;;4944566;28;20260;-83
2023/06/28 00:47:05;;;;;;;77.60;75.13;;;16.20;99.90;;;;;;4930115;28;20230;-84
2023/06/28 00:49:36;;;;;;;73.40;70.70;;;16.20;99.90;;;;;;4929123;28;20312;-83
2023/06/28 00:52:02;;;;;;;64.67;61.87;;;16.20;99.90;;;;;;4930849;29;20170;-83
2023/06/28 00:54:29;;;;;;;67.67;65.47;;;16.20;99.90;;;;;;4928823;29;20714;-83
2023/06/28 00:56:55;;;;;;;71.33;68.97;;;16.20;99.90;;;;;;4930290;28;20226;-83
2023/06/28 00:59:21;;;;;;;75.63;73.13;;;16.20;99.90;;;;;;4930298;28;20644;-83
2023/06/28 01:01:50;;;;;;;78.93;76.43;;;16.20;99.90;;;;;;4929273;29;20301;-83
2023/06/28 01:04:16;;;;;;;74.03;71.77;;;16.20;99.90;;;;;;4914404;29;20189;-83
2023/06/28 01:06:54;;;;;;;72.40;70.07;;;16.20;99.90;;;;;;4928302;29;20237;-84
2023/06/28 01:09:21;;;;;;;65.27;63.00;;;16.20;99.90;;;;;;4928491;29;20660;-83
2023/06/28 01:11:50;;;;;;;66.57;64.47;;;16.30;99.90;;;;;;4928415;29;20225;-83
2023/06/28 01:14:16;;;;;;;70.60;68.33;;;16.30;99.90;;;;;;4929511;28;20366;-83
2023/06/28 01:16:42;;;;;;;66.50;64.40;;;16.20;99.90;;;;;;4928368;28;20218;-83
2023/06/28 01:19:13;;;;;;;60.80;58.80;;;16.30;99.90;;;;;;4913245;29;20201;-84
2023/06/28 01:21:42;;;;;;;65.87;63.43;;;16.30;99.90;;;;;;4944708;28;20300;-83
2023/06/28 01:24:10;;;;;;;60.60;58.67;;;16.30;99.90;;;;;;4929691;28;20252;-84
2023/06/28 01:26:42;;;;;;;61.43;59.53;;;16.30;99.90;;;;;;4914274;29;20217;-84
2023/06/28 01:29:10;;;;;;;62.40;60.43;;;16.30;99.90;;;;;;4910743;29;20220;-83
2023/06/28 01:31:37;;;;;;;67.40;65.20;;;16.30;99.90;;;;;;4933016;28;20182;-83
2023/06/28 01:34:03;;;;;;;64.47;62.43;;;16.30;99.90;;;;;;4933559;29;20285;-84
2023/06/28 01:36:29;;;;;;;66.67;64.50;;;16.30;99.90;;;;;;4949343;28;20901;-84
2023/06/28 01:38:57;;;;;;;66.83;64.47;;;16.30;99.90;;;;;;4933045;29;20241;-84
2023/06/28 01:41:25;;;;;;;65.10;62.97;;;16.30;99.90;;;;;;4932776;29;20225;-84
2023/06/28 01:43:50;;;;;;;84.43;81.53;;;16.30;99.90;;;;;;4932812;29;20225;-84
2023/06/28 01:46:16;;;;;;;73.63;71.33;;;16.40;99.90;;;;;;4949239;29;20702;-84
2023/06/28 01:48:42;;;;;;;83.47;80.77;;;16.40;99.90;;;;;;4917321;29;20232;-84
2023/06/28 01:51:08;;;;;;;86.20;83.50;;;16.40;99.90;;;;;;4917481;29;20702;-84
2023/06/28 01:53:35;;;;;;;81.03;78.50;;;16.40;99.90;;;;;;4932699;29;20237;-84
2023/06/28 01:56:00;;;;;;;92.27;89.37;;;16.40;99.90;;;;;;4932282;29;20536;-83
2023/06/28 01:58:26;;;;;;;85.40;82.63;;;16.40;99.90;;;;;;4932326;28;20792;-84
2023/06/28 02:00:52;;;;;;;99.53;96.33;;;16.40;99.90;;;;;;4917478;29;20699;-83
2023/06/28 02:03:18;;;;;;;91.10;88.30;;;16.40;99.90;;;;;;4916250;29;20261;-83
2023/06/28 02:05:43;;;;;;;103.43;100.10;;;16.40;99.90;;;;;;4931767;29;20722;-83
2023/06/28 02:08:10;;;;;;;98.47;95.50;;;16.40;99.90;;;;;;4900753;29;20217;-83
2023/06/28 02:10:36;;;;;;;94.23;91.33;;;16.40;99.90;;;;;;4932292;28;20194;-84
2023/06/28 02:13:02;;;;;;;88.87;86.13;;;16.40;99.90;;;;;;4917174;29;20548;-84
2023/06/28 02:15:28;;;;;;;93.20;90.30;;;16.30;99.90;;;;;;4948190;28;20217;-83
2023/06/28 02:17:58;;;;;;;97.37;94.33;;;16.30;99.90;;;;;;4932700;29;20226;-84
2023/06/28 02:20:24;;;;;;;93.67;90.60;;;16.30;99.90;;;;;;4947814;28;20580;-84
2023/06/28 02:22:50;;;;;;;92.70;89.40;;;16.20;99.90;;;;;;4900884;29;20221;-84
2023/06/28 02:25:16;;;;;;;92.73;89.80;;;16.20;99.90;;;;;;4932727;29;20189;-84
2023/06/28 02:27:42;;;;;;;100.80;97.67;;;16.20;99.90;;;;;;4916566;29;20217;-83
2023/06/28 02:30:08;;;;;;;103.07;99.87;;;16.20;99.90;;;;;;4931908;29;20228;-83
2023/06/28 02:32:33;;;;;;;96.30;93.27;;;16.10;99.90;;;;;;4932020;29;20878;-83
2023/06/28 02:34:59;;;;;;;101.47;98.00;;;16.10;99.90;;;;;;4922913;28;20233;-83
2023/06/28 02:37:25;;;;;;;100.23;97.13;;;16.10;99.90;;;;;;4915774;28;20186;-83
2023/06/28 02:39:51;;;;;;;92.50;89.53;;;16.00;99.90;;;;;;4933007;29;20190;-83
2023/06/28 02:42:17;;;;;;;94.17;91.27;;;16.00;99.90;;;;;;4932781;28;20580;-84
2023/06/28 02:44:43;;;;;;;101.60;98.30;;;16.00;99.90;;;;;;4916028;29;20464;-83
2023/06/28 02:47:10;;;;;;;88.27;85.50;;;15.90;99.90;;;;;;4931672;29;20233;-84
2023/06/28 02:49:38;;;;;;;85.80;83.00;;;15.90;99.90;;;;;;4947502;28;20190;-84
2023/06/28 02:52:04;;;;;;;100.50;97.47;;;15.90;99.90;;;;;;4933600;29;20190;-84
2023/06/28 02:54:30;;;;;;;98.07;95.10;;;15.90;99.90;;;;;;4931585;29;20289;-84
2023/06/28 02:56:56;;;;;;;103.60;100.37;;;15.90;99.90;;;;;;4931959;29;20241;-84
2023/06/28 02:59:21;;;;;;;90.97;88.17;;;15.90;99.90;;;;;;4916281;29;20218;-84
2023/06/28 03:01:47;;;;;;;92.93;90.10;;;15.80;99.90;;;;;;4916150;29;20267;-84
2023/06/28 03:04:13;;;;;;;96.30;93.33;;;15.80;99.90;;;;;;4932823;29;20297;-84
2023/06/28 03:06:47;;;;;;;90.80;87.90;;;15.80;99.90;;;;;;4915874;29;20246;-84
2023/06/28 03:09:12;;;;;;;85.77;82.97;;;15.90;99.90;;;;;;4933230;28;20313;-85
2023/06/28 03:11:38;;;;;;;88.97;86.13;;;15.80;99.90;;;;;;4930778;29;20666;-85
2023/06/28 03:14:04;;;;;;;96.60;93.53;;;15.80;99.90;;;;;;4915440;29;20229;-85
2023/06/28 03:16:30;;;;;;;83.43;80.73;;;15.80;99.90;;;;;;4931520;28;20272;-85
2023/06/28 03:18:56;;;;;;;88.90;85.93;;;15.80;99.90;;;;;;4916454;29;20182;-84
2023/06/28 03:21:22;;;;;;;87.67;84.83;;;15.80;99.90;;;;;;4930755;29;20774;-84
2023/06/28 03:23:50;;;;;;;85.03;82.33;;;15.80;99.90;;;;;;4915425;29;20634;-84
2023/06/28 03:26:16;;;;;;;93.97;90.93;;;15.80;99.90;;;;;;4932404;28;20253;-85
2023/06/28 03:28:42;;;;;;;93.70;90.77;;;15.80;99.90;;;;;;4900039;28;20639;-85
2023/06/28 03:31:08;;;;;;;85.27;82.30;;;15.80;99.90;;;;;;4915898;29;20190;-84
2023/06/28 03:33:33;;;;;;;88.67;85.87;;;15.80;99.90;;;;;;4930505;29;20353;-84
2023/06/28 03:35:59;;;;;;;86.67;83.83;;;15.80;99.90;;;;;;4930029;28;20222;-85
2023/06/28 03:38:25;;;;;;;90.10;87.33;;;15.90;99.90;;;;;;4913915;29;20638;-85
2023/06/28 03:40:51;;;;;;;99.87;96.73;;;15.90;99.90;;;;;;4914162;29;20283;-85
2023/06/28 03:43:16;;;;;;;106.63;103.00;;;15.90;99.90;;;;;;4914777;29;20534;-84
2023/06/28 03:45:45;;;;;;;102.50;99.30;;;15.90;99.90;;;;;;4914337;29;20571;-85
2023/06/28 03:48:11;;;;;;;97.77;94.70;;;15.90;99.90;;;;;;4929668;29;20698;-85
2023/06/28 03:50:36;;;;;;;98.87;95.60;;;15.90;99.90;;;;;;4913779;29;20255;-85
2023/06/28 03:53:02;;;;;;;100.53;97.37;;;15.90;99.90;;;;;;4897935;29;20245;-85
2023/06/28 03:55:31;;;;;;;95.73;92.57;;;15.90;99.90;;;;;;4913874;28;20186;-84
2023/06/28 03:57:57;;;;;;;96.50;92.93;;;15.80;99.90;;;;;;4930688;29;20186;-85
2023/06/28 04:00:23;;;;;;;99.80;96.47;;;15.90;99.90;;;;;;4945264;28;20225;-85
2023/06/28 04:02:49;;;;;;;111.30;107.83;;;15.80;99.90;;;;;;4929783;29;20845;-86
2023/06/28 04:05:17;;;;;;;106.17;102.80;;;15.80;99.90;;;;;;4929531;29;20587;-85
2023/06/28 04:07:44;;;;;;;97.17;94.13;;;15.80;99.90;;;;;;4929873;28;20226;-85
2023/06/28 04:10:12;;;;;;;115.83;111.93;;;15.90;99.90;;;;;;4930522;29;20273;-86
2023/06/28 04:12:41;;;;;;;108.20;104.23;;;15.90;99.90;;;;;;4897818;29;20281;-85
2023/06/28 04:15:09;;;;;;;100.30;97.17;;;15.80;99.90;;;;;;4929366;29;20734;-85
2023/06/28 04:17:35;;;;;;;112.37;108.87;;;15.80;99.90;;;;;;4913770;29;20296;-84
2023/06/28 04:20:05;;;;;;;96.87;93.40;;;15.80;99.90;;;;;;4913462;29;20333;-85
2023/06/28 04:22:31;;;;;;;97.37;94.27;;;15.80;99.90;;;;;;4929376;28;20174;-85
2023/06/28 04:24:57;;;;;;;96.10;92.93;;;15.80;99.90;;;;;;4898354;29;20228;-85
2023/06/28 04:27:23;;;;;;;109.57;106.17;;;15.80;99.90;;;;;;4898250;29;20221;-85
2023/06/28 04:29:49;;;;;;;105.97;102.67;;;15.80;99.90;;;;;;4929773;29;20222;-84
2023/06/28 04:32:26;;;;;;;109.67;106.13;;;15.80;99.90;;;;;;4929838;29;20698;-84
2023/06/28 04:34:53;;;;;;;97.80;94.70;;;15.80;99.90;;;;;;4945427;28;20313;-85
2023/06/28 04:37:31;;;;;;;106.03;102.67;;;15.80;99.90;;;;;;4930575;29;20178;-85
2023/06/28 04:40:03;;;;;;;106.90;103.57;;;15.80;99.90;;;;;;4931064;29;20224;-88
2023/06/28 04:42:29;;;;;;;105.73;102.13;;;15.90;99.90;;;;;;4930654;29;20221;-85
2023/06/28 04:45:06;;;;;;;108.23;104.70;;;15.90;99.90;;;;;;4945671;28;20226;-84
2023/06/28 04:47:33;;;;;;;111.77;107.93;;;15.90;99.90;;;;;;4929547;29;20226;-84
2023/06/28 04:50:03;;;;;;;98.53;95.33;;;16.00;99.90;;;;;;4914177;29;20730;-84
2023/06/28 04:52:29;;;;;;;111.73;108.07;;;16.00;99.90;;;;;;4930009;28;20277;-85
2023/06/28 04:54:57;;;;;;;116.33;112.80;;;16.00;99.90;;;;;;4898390;29;20274;-85
2023/06/28 04:57:23;;;;;;;135.00;130.90;;;16.00;99.90;;;;;;4913700;29;20355;-85
2023/06/28 04:59:49;;;;;;;112.03;107.63;;;16.00;99.90;;;;;;4898278;29;20229;-85
2023/06/28 05:02:17;;;;;;;107.00;103.60;;;16.10;99.90;;;;;;4913275;29;20225;-85
2023/06/28 05:04:45;;;;;;;113.57;109.97;;;16.10;99.90;;;;;;4913257;28;20297;-85
2023/06/28 05:07:10;;;;;;;116.73;112.63;;;16.10;99.90;;;;;;4929549;29;20710;-85
2023/06/28 05:09:38;;;;;;;111.20;107.60;;;16.00;99.90;;;;;;4897116;29;20225;-85
2023/06/28 05:12:04;;;;;;;127.63;123.67;;;16.10;99.90;;;;;;4928567;29;20222;-85
2023/06/28 05:14:31;;;;;;;112.43;108.70;;;16.10;99.90;;;;;;4912429;29;20264;-86
2023/06/28 05:16:57;;;;;;;130.83;126.43;;;16.10;99.90;;;;;;4944261;28;20221;-85
2023/06/28 05:19:24;;;;;;;112.63;108.97;;;16.10;99.90;;;;;;4929271;28;20182;-85
2023/06/28 05:21:53;;;;;;;123.93;119.93;;;16.20;99.90;;;;;;4928925;29;20189;-85
2023/06/28 05:24:19;;;;;;;127.13;123.07;;;16.20;99.90;;;;;;4928920;29;20775;-85
2023/06/28 05:26:46;;;;;;;116.57;112.87;;;16.20;99.90;;;;;;4944376;28;20261;-85
2023/06/28 05:29:12;;;;;;;132.33;128.00;;;16.30;99.90;;;;;;4928443;29;20249;-86
2023/06/28 05:31:41;;;;;;;129.97;125.60;;;16.30;99.90;;;;;;4928218;28;20273;-85
2023/06/28 05:34:06;;;;;;;123.17;118.63;;;16.30;99.90;;;;;;4929700;28;20218;-85
2023/06/28 05:36:33;;;;;;;128.07;124.07;;;16.40;99.90;;;;;;4896787;29;20308;-84
2023/06/28 05:38:59;;;;;;;123.17;119.17;;;16.30;99.90;;;;;;4928311;29;20225;-83
2023/06/28 05:41:25;;;;;;;137.57;133.07;;;16.40;99.90;;;;;;4929414;28;20639;-82
2023/06/28 05:43:51;;;;;;;125.83;121.20;;;16.40;99.90;;;;;;4927815;29;20243;-83
2023/06/28 05:46:16;;;;;;;130.77;126.37;;;16.50;99.90;;;;;;4928624;29;20636;-83
2023/06/28 05:48:43;;;;;;;136.17;131.70;;;16.60;99.90;;;;;;4896344;29;20229;-83
2023/06/28 05:51:09;;;;;;;126.87;122.33;;;16.50;99.90;;;;;;4928168;29;20289;-82
2023/06/28 05:53:37;;;;;;;133.37;128.70;;;16.40;99.90;;;;;;4912236;29;20230;-83
2023/06/28 05:56:03;;;;;;;145.10;139.97;;;16.50;99.90;;;;;;4896788;29;20285;-83
2023/06/28 05:58:32;;;;;;;128.77;124.23;;;16.40;99.90;;;;;;4927928;28;20210;-82
2023/06/28 06:00:57;;;;;;;142.87;138.37;;;16.40;99.90;;;;;;4929243;29;20343;-82
2023/06/28 06:03:23;;;;;;;190.63;184.57;;;16.50;99.90;;;;;;4927805;29;20955;-82
2023/06/28 06:05:49;;;;;;;136.90;132.03;;;16.50;99.90;;;;;;4928995;28;20238;-83
2023/06/28 06:08:15;;;;;;;152.23;146.63;;;16.60;99.90;;;;;;4927886;29;20241;-82
2023/06/28 06:10:41;;;;;;;142.20;137.60;;;16.70;99.90;;;;;;4928259;28;20688;-83
2023/06/28 06:13:07;;;;;;;144.47;139.17;;;16.70;99.90;;;;;;4913563;29;20229;-82
2023/06/28 06:15:33;;;;;;;137.97;133.30;;;16.70;99.90;;;;;;4931407;29;20233;-82
2023/06/28 06:17:59;;;;;;;139.80;135.07;;;16.70;99.90;;;;;;4932680;28;20274;-82
2023/06/28 06:20:24;;;;;;;140.47;135.60;;;16.80;99.90;;;;;;4900130;29;20628;-83
2023/06/28 06:22:50;;;;;;;146.17;140.93;;;16.80;99.90;;;;;;4933017;28;20792;-82
2023/06/28 06:25:16;;;;;;;141.97;137.23;;;16.90;99.90;;;;;;4932230;29;20701;-82
2023/06/28 06:27:42;;;;;;;161.97;156.27;;;16.90;99.90;;;;;;4931306;29;20229;-81
2023/06/28 06:30:10;;;;;;;156.17;150.37;;;16.90;99.90;;;;;;4932283;28;20250;-81
2023/06/28 06:32:36;;;;;;;161.00;155.63;;;17.00;99.90;;;;;;4931188;29;20222;-81
2023/06/28 06:35:03;;;;;;;150.87;145.67;;;17.10;99.90;;;;;;4932550;28;20727;-82
2023/06/28 06:37:28;;;;;;;162.40;156.67;;;17.10;99.90;;;;;;4915523;28;20217;-81
2023/06/28 06:39:54;;;;;;;156.80;151.53;;;17.10;99.90;;;;;;4900279;29;20590;-81
2023/06/28 06:42:20;;;;;;;150.53;145.67;;;17.10;99.90;;;;;;4947196;28;20221;-82
2023/06/28 06:44:46;;;;;;;160.47;155.13;;;17.10;99.90;;;;;;4915151;29;20234;-83
2023/06/28 06:47:11;;;;;;;160.90;155.67;;;17.10;99.90;;;;;;4931159;29;20249;-83
2023/06/28 06:49:38;;;;;;;154.73;149.50;;;17.20;99.90;;;;;;4932247;28;20584;-83
2023/06/28 06:52:04;;;;;;;158.00;152.70;;;17.20;99.90;;;;;;4931770;29;20190;-83
2023/06/28 06:54:30;;;;;;;165.50;159.77;;;17.30;99.90;;;;;;4930962;29;20386;-82
2023/06/28 06:57:00;;;;;;;165.93;160.23;;;17.30;99.90;;;;;;4915203;29;20229;-81
2023/06/28 06:59:26;;;;;;;171.07;165.87;;;17.40;99.90;;;;;;4931977;28;20214;-82
2023/06/28 07:01:53;;;;;;;167.70;162.43;;;17.30;99.90;;;;;;4899429;29;20226;-81
2023/06/28 07:04:21;;;;;;;162.93;157.50;;;17.30;99.90;;;;;;4931180;29;20193;-82
2023/06/28 07:06:48;;;;;;;155.73;150.57;;;17.20;99.90;;;;;;4932068;29;20245;-81
2023/06/28 07:09:14;;;;;;;163.83;158.67;;;17.20;99.90;;;;;;4930871;28;20226;-81
2023/06/28 07:11:41;;;;;;;164.60;158.97;;;17.10;99.90;;;;;;4914915;29;20225;-81
2023/06/28 07:14:07;;;;;;;150.90;145.97;;;17.10;99.90;;;;;;4930670;29;20403;-81
2023/06/28 07:16:33;;;;;;;166.03;160.93;;;17.10;99.90;;;;;;4930646;28;20322;-81
2023/06/28 07:18:59;;;;;;;157.17;152.30;;;17.10;99.90;;;;;;4932301;28;20186;-81
2023/06/28 07:21:25;;;;;;;152.40;147.27;;;17.10;99.90;;;;;;4914624;29;20621;-81
2023/06/28 07:23:50;;;;;;;158.57;153.37;;;17.10;99.90;;;;;;4931497;28;20370;-81
2023/06/28 07:26:17;;;;;;;148.57;142.83;;;17.10;99.90;;;;;;4930245;29;20241;-82
2023/06/28 07:28:43;;;;;;;162.80;157.53;;;17.00;99.90;;;;;;4914580;28;20220;-81
2023/06/28 07:31:09;;;;;;;157.47;152.30;;;17.00;99.90;;;;;;4930734;29;20187;-81
2023/06/28 07:33:34;;;;;;;164.03;158.70;;;17.00;99.90;;;;;;4929948;29;20230;-82
2023/06/28 07:36:00;;;;;;;159.53;154.37;;;17.00;99.90;;;;;;4929953;29;20233;-81
2023/06/28 07:38:26;;;;;;;154.17;149.27;;;17.00;99.90;;;;;;4898471;29;20691;-81
2023/06/28 07:40:53;;;;;;;157.53;152.10;;;17.10;99.90;;;;;;4930842;28;20234;-81
2023/06/28 07:43:19;;;;;;;156.87;151.80;;;17.10;99.90;;;;;;4915166;29;20527;-81
2023/06/28 07:45:46;;;;;;;172.50;166.73;;;17.10;99.90;;;;;;4929933;29;20220;-81
2023/06/28 07:48:11;;;;;;;166.00;160.80;;;17.10;99.90;;;;;;4945939;28;20217;-81
2023/06/28 07:50:40;;;;;;;177.90;172.37;;;17.20;99.90;;;;;;4930797;28;20292;-81
2023/06/28 07:53:06;;;;;;;168.73;163.20;;;17.20;99.90;;;;;;4930067;29;20242;-81
2023/06/28 07:55:32;;;;;;;169.90;163.83;;;17.10;99.90;;;;;;4929769;28;20276;-81
2023/06/28 07:57:58;;;;;;;154.40;149.33;;;17.10;99.90;;;;;;4930211;29;20807;-80
2023/06/28 08:00:27;;;;;;;154.57;149.47;;;17.10;99.90;;;;;;4914113;29;20226;-80
2023/06/28 08:02:52;;;;;;;157.03;152.10;;;17.20;99.90;;;;;;4929494;29;20309;-80
2023/06/28 08:05:19;;;;;;;165.63;160.27;;;17.10;99.90;;;;;;4929386;29;20324;-81
2023/06/28 08:07:46;;;;;;;161.00;155.70;;;17.30;99.90;;;;;;4929338;29;20226;-81
2023/06/28 08:10:11;;;;;;;177.60;171.83;;;17.30;99.90;;;;;;4914283;29;20254;-80
2023/06/28 08:12:37;;;;;;;171.73;166.43;;;17.50;99.90;;;;;;4929702;29;20229;-80
2023/06/28 08:15:04;;;;;;;161.57;156.13;;;17.50;99.90;;;;;;4897665;29;20226;-80
2023/06/28 08:17:29;;;;;;;171.37;165.77;;;17.40;99.90;;;;;;4930626;28;20238;-80
2023/06/28 08:19:55;;;;;;;172.03;166.37;;;17.40;99.90;;;;;;4930449;28;20823;-81
2023/06/28 08:22:21;;;;;;;179.23;173.10;;;17.40;99.90;;;;;;4930594;28;20189;-81
2023/06/28 08:24:48;;;;;;;172.43;166.97;;;17.40;99.90;;;;;;4929837;29;20320;-81
2023/06/28 08:27:14;;;;;;;186.60;180.57;;;17.50;99.90;;;;;;4930546;28;20237;-81
2023/06/28 08:29:40;;;;;;;181.40;175.30;;;17.50;99.90;;;;;;4929275;29;20285;-82
2023/06/28 08:32:06;;;;;;;184.73;178.77;;;17.60;99.90;;;;;;4929029;29;20237;-82
2023/06/28 08:34:32;;;;;;;175.90;170.10;;;17.70;99.90;;;;;;4928865;28;20625;-82
2023/06/28 08:36:57;;;;;;;182.57;176.67;;;17.70;99.90;;;;;;4929004;29;20257;-82
2023/06/28 08:39:24;;;;;;;169.13;163.10;;;17.70;99.90;;;;;;4930266;28;20226;-81
2023/06/28 08:41:52;;;;;;;185.90;180.00;;;17.80;99.90;;;;;;4913482;29;20218;-81
2023/06/28 08:44:20;;;;;;;185.17;179.33;;;17.80;99.90;;;;;;4930372;28;20214;-81
2023/06/28 08:46:48;;;;;;;189.33;183.47;;;17.80;99.90;;;;;;4929902;28;20966;-81
2023/06/28 08:49:15;;;;;;;183.37;177.50;;;17.70;99.90;;;;;;4929617;29;20265;-81
2023/06/28 08:51:42;;;;;;;186.50;180.63;;;17.80;99.90;;;;;;4928783;29;20245;-81
2023/06/28 08:54:09;;;;;;;196.47;189.93;;;17.90;99.90;;;;;;4928444;29;20234;-81
2023/06/28 08:56:35;;;;;;;197.03;190.90;;;18.00;99.90;;;;;;4929944;28;20800;-81
2023/06/28 08:59:03;;;;;;;187.63;181.80;;;18.00;99.90;;;;;;4930203;28;20347;-82
2023/06/28 09:01:29;;;;;;;174.53;168.90;;;17.90;99.90;;;;;;4912722;28;20197;-81
2023/06/28 09:03:55;;;;;;;179.43;173.73;;;17.90;99.90;;;;;;4913380;29;20190;-80
2023/06/28 09:06:22;;;;;;;175.17;169.60;;;17.80;99.90;;;;;;4928269;29;20261;-80
2023/06/28 09:08:48;;;;;;;179.90;174.30;;;17.70;99.90;;;;;;4928196;29;20687;-80
2023/06/28 09:11:16;;;;;;;163.87;158.60;;;17.70;99.90;;;;;;4928609;29;20308;-80
2023/06/28 09:13:43;;;;;;;174.57;168.97;;;17.60;99.90;;;;;;4929708;28;20230;-80
2023/06/28 09:16:10;;;;;;;183.67;177.83;;;17.70;99.90;;;;;;4944866;29;20218;-80
2023/06/28 09:18:36;;;;;;;184.30;178.33;;;17.70;99.90;;;;;;4928676;29;20371;-80
2023/06/28 09:21:02;;;;;;;180.40;174.77;;;17.60;99.90;;;;;;4928486;29;20718;-80
2023/06/28 09:23:30;;;;;;;173.30;167.67;;;17.60;99.90;;;;;;4929684;28;20245;-80
2023/06/28 09:25:56;;;;;;;176.30;170.70;;;17.50;99.90;;;;;;4928364;29;20417;-81
2023/06/28 09:28:24;;;;;;;170.40;164.97;;;17.50;99.90;;;;;;4912920;28;20269;-81
2023/06/28 09:30:54;;;;;;;169.43;164.10;;;17.60;99.90;;;;;;4928654;29;20674;-81
2023/06/28 09:33:21;;;;;;;171.80;166.37;;;17.70;99.90;;;;;;4912614;29;20233;-80
2023/06/28 09:35:47;;;;;;;178.43;172.67;;;17.70;99.90;;;;;;4929385;28;20260;-81
2023/06/28 09:38:13;;;;;;;188.37;182.10;;;17.80;99.90;;;;;;4912570;29;20214;-81
2023/06/28 09:40:39;;;;;;;181.43;175.30;;;17.90;99.90;;;;;;4929193;28;20546;-81
2023/06/28 09:43:05;;;;;;;192.57;186.40;;;18.10;99.90;;;;;;4929048;29;20186;-80
2023/06/28 09:45:35;;;;;;;182.40;176.53;;;18.30;99.90;;;;;;4928384;29;20625;-81
2023/06/28 09:48:03;;;;;;;163.63;158.37;;;18.50;99.90;;;;;;4929950;29;20218;-81
2023/06/28 09:50:39;;;;;;;136.50;131.80;;;18.50;99.90;;;;;;4931848;29;20225;-80
2023/06/28 09:53:16;;;;;;;123.20;118.80;;;18.60;99.90;;;;;;4933056;28;20269;-81
2023/06/28 09:55:43;;;;;;;124.10;119.80;;;18.80;99.90;;;;;;4931730;28;20221;-81
2023/06/28 09:58:15;;;;;;;127.83;123.53;;;18.80;99.90;;;;;;4916730;29;20624;-82
2023/06/28 10:00:42;;;;;;;133.13;128.50;;;19.00;99.90;;;;;;4932184;29;20221;-81
2023/06/28 10:03:11;;;;;;;129.67;125.33;;;19.20;99.90;;;;;;4931865;29;20226;-81
2023/06/28 10:05:38;;;;;;;115.87;111.63;;;19.20;99.90;;;;;;4931182;29;20282;-82
2023/06/28 10:08:16;;;;;;;115.73;111.43;;;19.10;99.90;;;;;;4931731;29;20229;-82
2023/06/28 10:10:44;;;;;;;105.97;101.97;;;19.20;99.90;;;;;;4931944;28;20218;-81
2023/06/28 10:13:13;;;;;;;106.37;102.50;;;19.20;99.90;;;;;;4916673;29;20254;-81
2023/06/28 10:16:03;;;;;;;106.20;102.50;;;19.10;99.90;;;;;;4932594;28;20246;-82
2023/06/28 10:18:30;;;;;;;95.60;91.97;;;19.00;99.90;;;;;;4931811;29;20214;-83
2023/06/28 10:20:56;;;;;;;101.33;97.73;;;19.10;99.90;;;;;;4932532;28;20375;-82
2023/06/28 10:23:24;;;;;;;110.70;106.77;;;19.10;99.90;;;;;;4932630;28;20305;-83
2023/06/28 10:25:53;;;;;;;98.40;94.67;;;19.00;99.90;;;;;;4915437;29;20222;-83
2023/06/28 10:28:19;;;;;;;106.47;102.43;;;19.00;99.90;;;;;;4916562;29;20182;-82
2023/06/28 10:30:47;;;;;;;100.10;96.40;;;18.90;99.90;;;;;;4931279;29;20230;-83
2023/06/28 10:33:17;;;;;;;102.73;98.93;;;18.90;99.90;;;;;;4915381;29;20236;-83
2023/06/28 10:35:46;;;;;;;110.63;106.10;;;18.90;99.90;;;;;;4947167;28;20370;-82
2023/06/28 10:38:12;;;;;;;109.57;105.83;;;18.90;99.90;;;;;;4931301;29;20222;-83
2023/06/28 10:40:39;;;;;;;94.93;91.30;;;18.80;99.90;;;;;;4931252;28;20193;-83
2023/06/28 10:43:05;;;;;;;118.07;113.90;;;19.00;99.90;;;;;;4932819;29;20648;-83
2023/06/28 10:45:37;;;;;;;112.40;108.47;;;19.00;99.90;;;;;;4899840;29;20304;-82
2023/06/28 10:48:04;;;;;;;109.87;105.67;;;19.00;99.90;;;;;;4931988;28;20225;-83
2023/06/28 10:50:42;;;;;;;102.37;98.67;;;19.00;99.90;;;;;;4915290;29;20218;-83
2023/06/28 10:53:22;;;;;;;109.37;105.20;;;19.00;99.90;;;;;;4930870;29;20233;-83
2023/06/28 10:56:11;;;;;;;116.23;111.93;;;19.10;99.90;;;;;;4932149;28;20317;-82
2023/06/28 10:58:42;;;;;;;111.57;107.40;;;19.10;99.90;;;;;;4931986;28;20305;-83
2023/06/28 11:01:10;;;;;;;106.53;102.83;;;19.20;99.90;;;;;;4931241;29;20174;-84
2023/06/28 11:03:45;;;;;;;104.60;100.53;;;19.20;99.90;;;;;;4915017;29;20253;-83
2023/06/28 11:06:12;;;;;;;98.33;94.70;;;19.20;99.90;;;;;;4931731;28;20269;-83
2023/06/28 11:08:43;;;;;;;108.13;104.23;;;19.20;99.90;;;;;;4931982;28;20237;-83
2023/06/28 11:11:34;;;;;;;105.73;101.80;;;19.20;99.90;;;;;;4930896;29;20218;-82
2023/06/28 11:14:26;;;;;;;108.13;103.60;;;19.20;99.90;;;;;;4931888;28;20691;-83
2023/06/28 11:17:00;;;;;;;106.73;102.57;;;19.20;99.90;;;;;;4946516;28;20259;-82
2023/06/28 11:19:27;;;;;;;107.13;103.03;;;19.40;99.90;;;;;;4946587;28;20213;-83
2023/06/28 11:22:00;;;;;;;113.37;107.90;;;19.30;99.90;;;;;;4931020;29;20269;-82
2023/06/28 11:24:29;;;;;;;122.00;117.10;;;19.30;99.90;;;;;;4931725;28;20277;-83
2023/06/28 11:26:55;;;;;;;108.03;103.57;;;19.30;99.90;;;;;;4930367;29;20281;-83
2023/06/28 11:29:23;;;;;;;110.10;105.87;;;19.40;99.90;;;;;;4914515;29;20214;-82
2023/06/28 11:31:51;;;;;;;110.80;106.57;;;19.40;99.90;;;;;;4898481;29;20225;-81
2023/06/28 11:34:18;;;;;;;102.27;98.27;;;19.40;99.90;;;;;;4931856;28;20213;-81
2023/06/28 11:36:46;;;;;;;109.47;105.37;;;19.30;99.90;;;;;;4931127;28;20237;-81
2023/06/28 11:39:16;;;;;;;109.60;105.30;;;19.30;99.90;;;;;;4930149;29;20229;-81
2023/06/28 11:41:43;;;;;;;110.83;106.43;;;19.30;99.90;;;;;;4929822;29;20594;-81
2023/06/28 11:44:09;;;;;;;106.43;101.70;;;19.30;99.90;;;;;;4930974;28;20786;-81
2023/06/28 11:46:36;;;;;;;101.70;97.57;;;19.20;99.90;;;;;;4930099;28;20178;-81
2023/06/28 11:49:03;;;;;;;105.10;100.87;;;19.00;99.90;;;;;;4930549;29;20205;-82
2023/06/28 11:51:30;;;;;;;107.77;103.40;;;19.10;99.90;;;;;;4945809;28;20312;-81
2023/06/28 11:53:56;;;;;;;103.97;99.80;;;19.10;99.90;;;;;;4929739;28;20293;-82
2023/06/28 11:56:36;;;;;;;109.17;104.83;;;19.10;99.90;;;;;;4929876;29;20230;-81
2023/06/28 11:59:19;;;;;;;113.77;109.33;;;19.10;99.90;;;;;;4929930;29;20224;-81
2023/06/28 12:01:46;;;;;;;104.60;100.63;;;19.10;99.90;;;;;;4929681;29;20690;-81
2023/06/28 12:04:20;;;;;;;98.40;94.10;;;18.90;99.90;;;;;;4930277;29;20276;-82
2023/06/28 12:06:47;;;;;;;107.13;103.00;;;18.90;99.90;;;;;;4931088;29;20319;-82
2023/06/28 12:09:29;;;;;;;110.47;106.07;;;18.90;99.90;;;;;;4913315;29;20233;-82
2023/06/28 12:11:57;;;;;;;106.03;102.13;;;18.80;99.90;;;;;;4944380;28;20574;-82
2023/06/28 12:14:23;;;;;;;104.77;100.40;;;18.80;99.90;;;;;;4929394;29;20241;-82
2023/06/28 12:16:50;;;;;;;104.80;100.57;;;18.70;99.90;;;;;;4930803;28;20225;-81